Omaha, NE

3:54 AM CDT on July 22, 2019 (GMT -0500)
CarterLake.org | | Change Station
Active Advisory: Flood Advisory Active Notice: Flood Advisory

Elev 980 ft 41.29 °N, 95.92 °W | Updated 6 seconds ago

Mostly Cloudy
Mostly Cloudy
69.8 °F
Feels Like 69.8 °F
N
6
Wind Variable Wind from North
Gusts 9.2 mph

Today
High -- | Low -- °F
--% Chance of Precip.
Yesterday
High -- | Low -- °F
Precip. -- in
Pressure 30.13 in
Visibility 10.0 miles
Clouds Few 6500 ft
Mostly Cloudy 9000 ft
Dew Point 64 °F
Humidity 82%
Rainfall 0.00 in
Snow Depth Not available.
6:09 AM 8:50 PM
Waning Gibbous, 75% visible
METAR KOMA 220752Z 33009KT 10SM FEW065 BKN090 21/19 A3015 RMK AO2 SLP203 T02110189 $
Pressure 30.13 in
Visibility 10.0 miles
Clouds Few 6500 ft
Mostly Cloudy 9000 ft
Dew Point 64 °F
Humidity 82%
Rainfall 0.00 in
Snow Depth Not available.
6:09 AM 8:50 PM
Waning Gibbous, 75% visible
METAR KOMA 220752Z 33009KT 10SM FEW065 BKN090 21/19 A3015 RMK AO2 SLP203 T02110189 $

Get Your Daily Forecast Email!

Thanks for signing up!

Be on the lookout for a verification email in your inbox.

You'll start receiving severe weather alerts in your inbox..

×

10-Day Weather Forecast

Almanac

Astronomy

Jul. 22, 2019 Rise Set
Actual Time
Civil Twilight
Nautical Twilight
Astronomical Twilight
Moon
Length of Visible Light
Length of Day
Tomorrow will be .
, % of the Moon is Illuminated

Today's Extremes

State Highs State Lows

Community

WunderPhotos

Category 6

Welcome to Category 6. This is the collective home for Weather Underground's featured writeups by Dr. Jeff Masters (right), Bob Henson (left), Chris Burt, and other regular contributors.

Nearby

Air Quality

  Air Quality AQ Index Pollutant
Not available.

Snow Depth

Station Depth Elevation

Earthquake Activity

City Distance Mag. Time & Date
Minimum magnitude displayed is 2.5.

Coastal Water Temperatures

Place Temperature

Stations

Nearby Weather Stations

Station Location Temp. Windchill Dew Point Humidity Wind Precip. Elev Updated Type
                   

Watches & Warnings

Flood Advisory
Issued: 8:49 PM CDT Jul. 21, 2019 – National Weather Service

The flood advisory continues for
the Missouri River at Omaha.
* Until further notice.
* At 8:30 PM Sunday the stage was 27.6 feet.
* Flood stage is 29.0 feet.
* Forecast... the river will rise to near 28.1 feet early Tuesday
afternoon.



Lat... Lon 4142 9602 4142 9583 4107 9574 4106 9591
      4132 9595